createdAt,value
2023-04-03T00:01:45.813Z,-0.58
2023-04-03T00:04:15.898Z,-0.58
2023-04-03T00:06:42.763Z,-0.60
2023-04-03T00:09:10.643Z,-0.67
2023-04-03T00:11:37.531Z,-0.60
2023-04-03T00:14:04.321Z,-0.60
2023-04-03T00:16:31.396Z,-0.59
2023-04-03T00:18:58.164Z,-0.61
2023-04-03T00:21:25.290Z,-0.68
2023-04-03T00:23:52.096Z,-0.67
2023-04-03T00:26:18.903Z,-0.69
2023-04-03T00:28:46.142Z,-0.62
2023-04-03T00:31:15.036Z,-0.48
2023-04-03T00:33:41.891Z,-0.52
2023-04-03T00:36:11.084Z,-0.47
2023-04-03T00:38:38.025Z,-0.44
2023-04-03T00:41:04.896Z,-0.28
2023-04-03T00:43:31.802Z,-0.16
2023-04-03T00:45:59.455Z,-0.17
2023-04-03T00:48:34.005Z,-0.06
2023-04-03T00:51:00.783Z,-0.03
2023-04-03T00:53:29.311Z,-0.02
2023-04-03T00:55:56.498Z,0.04
2023-04-03T00:58:23.904Z,0.05
2023-04-03T01:00:57.312Z,0.05
2023-04-03T01:03:24.608Z,-0.07
2023-04-03T01:05:51.737Z,-0.13
2023-04-03T01:08:18.583Z,-0.12
2023-04-03T01:10:46.445Z,-0.16
2023-04-03T01:13:25.035Z,-0.14
2023-04-03T01:15:51.917Z,-0.13
2023-04-03T01:18:19.010Z,-0.12
2023-04-03T01:20:53.527Z,-0.10
2023-04-03T01:23:41.993Z,-0.09
2023-04-03T01:26:10.145Z,-0.11
2023-04-03T01:28:37.220Z,-0.15
2023-04-03T01:31:16.766Z,-0.15
2023-04-03T01:33:45.901Z,-0.18
2023-04-03T01:36:15.774Z,-0.25
2023-04-03T01:38:42.625Z,-0.30
2023-04-03T01:41:09.511Z,-0.22
2023-04-03T01:43:37.127Z,-0.22
2023-04-03T01:46:04.176Z,-0.19
2023-04-03T01:48:30.979Z,-0.20
2023-04-03T01:50:58.039Z,-0.18
2023-04-03T01:53:25.061Z,-0.18
2023-04-03T01:55:51.849Z,-0.14
2023-04-03T01:58:19.110Z,-0.16
2023-04-03T02:00:49.222Z,-0.21
2023-04-03T02:03:16.562Z,-0.23
2023-04-03T02:05:43.723Z,-0.26
2023-04-03T02:08:11.298Z,-0.27
2023-04-03T02:10:38.456Z,-0.27
2023-04-03T02:13:06.441Z,-0.25
2023-04-03T02:15:33.283Z,-0.29
2023-04-03T02:18:00.166Z,-0.30
2023-04-03T02:20:27.469Z,-0.34
2023-04-03T02:22:54.276Z,-0.18
2023-04-03T02:25:21.846Z,-0.21
2023-04-03T02:27:48.716Z,-0.26
2023-04-03T02:30:16.017Z,-0.31
2023-04-03T02:32:43.618Z,-0.21
2023-04-03T02:35:11.167Z,-0.29
2023-04-03T02:37:39.288Z,-0.48
2023-04-03T02:40:07.471Z,-0.58
2023-04-03T02:42:35.688Z,-0.51
2023-04-03T02:45:03.830Z,-0.50
2023-04-03T02:47:30.710Z,-0.56
2023-04-03T02:49:57.634Z,-0.55
2023-04-03T02:52:24.461Z,-0.52
2023-04-03T02:54:53.401Z,-0.55
2023-04-03T02:57:21.228Z,-0.54
2023-04-03T02:59:48.141Z,-0.59
2023-04-03T03:02:14.923Z,-0.68
2023-04-03T03:04:41.734Z,-0.71
2023-04-03T03:07:08.546Z,-0.86
2023-04-03T03:09:35.408Z,-0.73
2023-04-03T03:12:02.251Z,-0.80
2023-04-03T03:14:30.414Z,-0.87
2023-04-03T03:16:57.248Z,-0.84
2023-04-03T03:19:24.009Z,-0.81
2023-04-03T03:21:52.347Z,-0.96
2023-04-03T03:24:19.105Z,-0.98
2023-04-03T03:26:46.026Z,-1.01
2023-04-03T03:29:12.960Z,-0.91
2023-04-03T03:31:40.105Z,-1.09
2023-04-03T03:34:07.645Z,-0.96
2023-04-03T03:36:34.461Z,-0.88
2023-04-03T03:39:01.462Z,-1.03
2023-04-03T03:41:28.412Z,-1.03
2023-04-03T03:43:55.334Z,-0.98
2023-04-03T03:46:23.517Z,-0.97
2023-04-03T03:48:51.042Z,-1.04
2023-04-03T03:51:17.820Z,-0.96
2023-04-03T03:53:44.887Z,-1.05
2023-04-03T03:56:15.612Z,-1.12
2023-04-03T03:58:43.337Z,-1.09
2023-04-03T04:01:10.265Z,-1.05
2023-04-03T04:03:43.947Z,-1.06
2023-04-03T04:06:13.935Z,-0.97
2023-04-03T04:08:40.953Z,-0.90
2023-04-03T04:11:10.563Z,-0.94
2023-04-03T04:13:38.513Z,-1.02
2023-04-03T04:16:05.711Z,-1.11
2023-04-03T04:18:33.725Z,-0.96
2023-04-03T04:21:00.745Z,-0.98
2023-04-03T04:23:28.307Z,-1.05
2023-04-03T04:25:55.538Z,-1.11
2023-04-03T04:28:23.121Z,-1.04
2023-04-03T04:30:52.662Z,-1.10
2023-04-03T04:33:21.234Z,-1.15
2023-04-03T04:35:48.652Z,-1.08
2023-04-03T04:38:17.023Z,-1.06
2023-04-03T04:40:43.863Z,-1.04
2023-04-03T04:43:12.269Z,-1.06
2023-04-03T04:45:39.376Z,-0.88
2023-04-03T04:48:06.887Z,-0.96
2023-04-03T04:50:33.774Z,-0.97
2023-04-03T04:53:00.571Z,-0.69
2023-04-03T04:55:27.386Z,-0.57
2023-04-03T04:57:54.217Z,-0.48
2023-04-03T05:00:22.042Z,-0.59
2023-04-03T05:02:49.216Z,-0.80
2023-04-03T05:05:16.783Z,-0.94
2023-04-03T05:07:43.779Z,-0.95
2023-04-03T05:10:11.148Z,-0.80
2023-04-03T05:12:39.006Z,-0.94
2023-04-03T05:15:06.632Z,-1.01
2023-04-03T05:17:34.498Z,-0.93
2023-04-03T05:20:03.883Z,-0.93
2023-04-03T05:22:31.883Z,-0.85
2023-04-03T05:25:06.108Z,-0.74
2023-04-03T05:27:34.882Z,-0.66
2023-04-03T05:30:02.784Z,-0.81
2023-04-03T05:32:31.767Z,-0.82
2023-04-03T05:35:12.674Z,-0.78
2023-04-03T05:37:43.641Z,-0.80
2023-04-03T05:40:12.018Z,-0.81
2023-04-03T05:42:43.138Z,-0.79
2023-04-03T05:45:10.454Z,-0.79
2023-04-03T05:47:37.588Z,-0.66
2023-04-03T05:50:07.532Z,-0.49
2023-04-03T05:52:35.290Z,-0.51
2023-04-03T05:55:02.606Z,-0.45
2023-04-03T05:57:32.021Z,-0.50
2023-04-03T05:59:59.665Z,-0.38
2023-04-03T06:02:27.830Z,-0.32
2023-04-03T06:04:57.976Z,-0.27
2023-04-03T06:07:28.545Z,-0.19
2023-04-03T06:09:56.978Z,-0.12
2023-04-03T06:12:24.388Z,-0.12
2023-04-03T06:14:52.445Z,-0.15
2023-04-03T06:17:20.014Z,-0.08
2023-04-03T06:19:47.962Z,0.00
2023-04-03T06:22:15.961Z,0.00
2023-04-03T06:24:42.969Z,0.03
2023-04-03T06:27:10.863Z,0.04
2023-04-03T06:29:38.678Z,0.12
2023-04-03T06:32:05.671Z,0.09
2023-04-03T06:34:32.767Z,0.08
2023-04-03T06:36:59.792Z,0.08
2023-04-03T06:39:26.919Z,0.17
2023-04-03T06:41:54.044Z,0.12
2023-04-03T06:44:29.888Z,0.10
2023-04-03T06:46:56.781Z,0.21
2023-04-03T06:49:23.853Z,0.30
2023-04-03T06:51:51.146Z,0.32
2023-04-03T06:54:21.587Z,0.35
2023-04-03T06:56:51.168Z,0.38
2023-04-03T06:59:19.400Z,0.35
2023-04-03T07:01:46.619Z,0.37
2023-04-03T07:04:14.081Z,0.42
2023-04-03T07:06:41.809Z,0.48
2023-04-03T07:09:08.952Z,0.49
2023-04-03T07:11:35.924Z,0.59
2023-04-03T07:14:02.997Z,0.71
2023-04-03T07:16:32.178Z,0.80
2023-04-03T07:18:59.009Z,0.91
2023-04-03T07:21:25.942Z,0.89
2023-04-03T07:23:52.668Z,0.88
2023-04-03T07:26:19.784Z,0.95
2023-04-03T07:28:49.965Z,1.25
2023-04-03T07:31:18.450Z,1.45
2023-04-03T07:33:46.381Z,1.13
2023-04-03T07:36:15.980Z,0.94
2023-04-03T07:38:42.829Z,0.90
2023-04-03T07:41:12.284Z,1.00
2023-04-03T07:43:40.704Z,1.14
2023-04-03T07:46:07.857Z,1.29
2023-04-03T07:48:36.368Z,1.36
2023-04-03T07:51:03.768Z,1.49
2023-04-03T07:53:34.220Z,1.42
2023-04-03T07:56:01.284Z,1.56
2023-04-03T07:58:28.204Z,1.60
2023-04-03T08:00:55.077Z,1.63
2023-04-03T08:03:22.484Z,1.61
2023-04-03T08:05:50.505Z,1.62
2023-04-03T08:08:20.074Z,1.60
2023-04-03T08:10:52.173Z,1.77
2023-04-03T08:13:19.629Z,1.80
2023-04-03T08:15:46.533Z,1.99
2023-04-03T08:18:13.938Z,2.04
2023-04-03T08:20:41.724Z,2.07
2023-04-03T08:23:09.002Z,2.27
2023-04-03T08:25:39.339Z,2.07
2023-04-03T08:28:06.340Z,2.11
2023-04-03T08:30:33.256Z,2.41
2023-04-03T08:33:02.495Z,2.23
2023-04-03T08:35:29.734Z,2.11
2023-04-03T08:37:57.786Z,2.15
2023-04-03T08:40:25.069Z,2.02
2023-04-03T08:42:58.253Z,1.94
2023-04-03T08:45:31.339Z,2.05
2023-04-03T08:48:07.052Z,2.16
2023-04-03T08:50:45.268Z,1.91
2023-04-03T08:53:14.180Z,1.98
2023-04-03T08:55:41.920Z,1.96
2023-04-03T08:58:13.652Z,1.88
2023-04-03T09:00:47.150Z,1.81
2023-04-03T09:03:17.520Z,1.80
2023-04-03T09:05:52.493Z,1.66
2023-04-03T09:08:23.112Z,1.63
2023-04-03T09:10:50.143Z,1.70
2023-04-03T09:13:26.573Z,1.82
2023-04-03T09:15:55.056Z,2.09
2023-04-03T09:18:23.427Z,2.06
2023-04-03T09:20:50.335Z,2.02
2023-04-03T09:23:26.359Z,2.07
2023-04-03T09:25:55.822Z,2.05
2023-04-03T09:28:22.779Z,2.10
2023-04-03T09:30:49.750Z,2.21
2023-04-03T09:33:16.751Z,2.26
2023-04-03T09:35:50.979Z,2.53
2023-04-03T09:38:19.390Z,2.76
2023-04-03T09:40:47.051Z,2.61
2023-04-03T09:43:18.232Z,2.58
2023-04-03T09:45:46.222Z,2.73
2023-04-03T09:48:17.437Z,2.79
2023-04-03T09:51:06.187Z,2.79
2023-04-03T09:53:38.029Z,2.99
2023-04-03T09:56:17.055Z,3.09
2023-04-03T09:58:53.524Z,3.21
2023-04-03T10:01:34.130Z,3.19
2023-04-03T10:04:14.659Z,3.18
2023-04-03T10:06:44.670Z,3.22
2023-04-03T10:09:17.972Z,3.31
2023-04-03T10:11:59.086Z,3.28
2023-04-03T10:14:26.688Z,3.36
2023-04-03T10:17:12.600Z,3.36
2023-04-03T10:19:53.928Z,3.29
2023-04-03T10:22:24.056Z,3.39
2023-04-03T10:24:58.703Z,3.42
2023-04-03T10:27:44.481Z,3.41
2023-04-03T10:30:30.220Z,3.31
2023-04-03T10:33:09.557Z,3.34
2023-04-03T10:35:49.827Z,3.21
2023-04-03T10:38:17.081Z,3.42
2023-04-03T10:40:49.192Z,3.30
2023-04-03T10:43:19.412Z,3.30
2023-04-03T10:45:58.625Z,3.33
2023-04-03T10:48:44.502Z,3.20
2023-04-03T10:51:25.335Z,3.21
2023-04-03T10:54:01.748Z,3.12
2023-04-03T10:56:33.657Z,3.16
2023-04-03T10:59:07.420Z,3.07
2023-04-03T11:01:35.209Z,3.12
2023-04-03T11:04:02.595Z,3.16
2023-04-03T11:06:52.944Z,3.19
2023-04-03T11:09:21.851Z,2.95
2023-04-03T11:11:49.370Z,3.06
2023-04-03T11:14:19.464Z,3.12
2023-04-03T11:16:54.289Z,3.08
2023-04-03T11:19:24.827Z,3.14
2023-04-03T11:22:05.208Z,3.12
2023-04-03T11:24:32.874Z,3.03
2023-04-03T11:26:59.949Z,3.02
2023-04-03T11:29:35.885Z,2.98
2023-04-03T11:32:03.281Z,2.99
2023-04-03T11:34:37.717Z,3.03
2023-04-03T11:37:05.977Z,3.08
2023-04-03T11:39:33.454Z,3.07
2023-04-03T11:42:24.546Z,3.14
2023-04-03T11:44:51.808Z,3.08
2023-04-03T11:47:38.482Z,3.02
2023-04-03T11:50:06.520Z,2.94
2023-04-03T11:52:41.463Z,2.97
2023-04-03T11:55:26.062Z,3.11
2023-04-03T11:57:59.308Z,3.24
2023-04-03T12:00:44.637Z,3.44
2023-04-03T12:03:31.725Z,3.49
2023-04-03T12:06:08.243Z,3.68
2023-04-03T12:08:35.457Z,3.80
2023-04-03T12:11:14.890Z,3.72
2023-04-03T12:13:42.970Z,3.80
2023-04-03T12:16:23.489Z,3.75
2023-04-03T12:18:50.484Z,3.77
2023-04-03T12:21:20.098Z,3.85
2023-04-03T12:23:58.387Z,3.66
2023-04-03T12:26:32.441Z,3.52
2023-04-03T12:29:32.080Z,3.56
2023-04-03T12:32:07.433Z,3.48
2023-04-03T12:34:42.365Z,3.31
2023-04-03T12:37:23.138Z,3.23
2023-04-03T12:40:10.840Z,3.20
2023-04-03T12:42:44.221Z,3.19
2023-04-03T12:45:11.279Z,3.25
2023-04-03T12:47:39.426Z,3.25
2023-04-03T12:50:14.623Z,3.38
2023-04-03T12:52:43.353Z,3.40
2023-04-03T12:55:17.569Z,3.47
2023-04-03T12:57:44.579Z,3.46
2023-04-03T13:00:44.439Z,3.43
2023-04-03T13:03:23.022Z,3.32
2023-04-03T13:05:49.967Z,3.25
2023-04-03T13:08:17.228Z,3.24
2023-04-03T13:10:57.645Z,3.19
2023-04-03T13:13:24.653Z,3.15
2023-04-03T13:15:51.917Z,3.15
2023-04-03T13:18:25.639Z,3.24
2023-04-03T13:20:53.086Z,3.11
2023-04-03T13:23:21.768Z,2.99
2023-04-03T13:25:48.716Z,2.93
2023-04-03T13:28:20.803Z,2.91
2023-04-03T13:30:58.310Z,2.79
2023-04-03T13:33:26.764Z,2.84
2023-04-03T13:35:58.190Z,2.85
2023-04-03T13:38:32.711Z,2.94
2023-04-03T13:41:01.961Z,3.03
2023-04-03T13:43:29.658Z,3.20
2023-04-03T13:46:07.570Z,3.24
2023-04-03T13:48:45.478Z,3.14
2023-04-03T13:51:16.271Z,3.16
2023-04-03T13:53:49.153Z,3.31
2023-04-03T13:56:22.201Z,3.57
2023-04-03T13:59:17.443Z,3.71
2023-04-03T14:01:49.840Z,3.87
2023-04-03T14:04:17.042Z,4.04
2023-04-03T14:06:43.964Z,3.95
2023-04-03T14:09:10.862Z,3.87
2023-04-03T14:11:37.664Z,3.98
2023-04-03T14:14:07.627Z,3.74
2023-04-03T14:16:35.615Z,3.59
2023-04-03T14:19:02.474Z,3.37
2023-04-03T14:21:29.272Z,3.28
2023-04-03T14:23:56.065Z,3.27
2023-04-03T14:26:23.747Z,3.23
2023-04-03T14:28:51.595Z,3.11
2023-04-03T14:31:18.900Z,2.85
2023-04-03T14:33:45.887Z,2.79
2023-04-03T14:36:14.231Z,2.82
2023-04-03T14:38:41.506Z,2.75
2023-04-03T14:41:16.087Z,2.75
2023-04-03T14:43:44.109Z,2.70
2023-04-03T14:46:15.513Z,2.69
2023-04-03T14:48:42.475Z,2.65
2023-04-03T14:51:11.496Z,2.64
2023-04-03T14:53:39.361Z,2.61
2023-04-03T14:56:11.462Z,2.57
2023-04-03T14:58:38.347Z,2.55
2023-04-03T15:01:05.397Z,2.58
2023-04-03T15:03:32.301Z,2.58
2023-04-03T15:06:00.408Z,2.57
2023-04-03T15:08:27.496Z,2.59
2023-04-03T15:10:54.273Z,2.68
2023-04-03T15:13:21.707Z,2.79
2023-04-03T15:15:48.554Z,2.73
2023-04-03T15:18:16.858Z,2.77
2023-04-03T15:20:44.477Z,2.73
2023-04-03T15:23:14.844Z,2.64
2023-04-03T15:25:41.711Z,2.60
2023-04-03T15:28:09.765Z,3.13
2023-04-03T15:30:38.172Z,4.24
2023-04-03T15:33:05.120Z,5.14
2023-04-03T15:35:32.105Z,5.99
2023-04-03T15:37:58.975Z,6.33
2023-04-03T15:40:26.910Z,6.97
2023-04-03T15:42:54.465Z,7.42
2023-04-03T15:45:22.432Z,7.66
2023-04-03T15:47:49.238Z,8.21
2023-04-03T15:50:16.216Z,7.62
2023-04-03T15:52:43.124Z,6.81
2023-04-03T15:55:10.073Z,6.19
2023-04-03T16:00:04.797Z,4.76
2023-04-03T16:02:34.088Z,4.16
2023-04-03T16:05:01.013Z,3.84
2023-04-03T16:07:28.025Z,3.61
2023-04-03T16:09:54.929Z,3.35
2023-04-03T16:12:21.733Z,3.24
2023-04-03T16:14:48.580Z,3.24
2023-04-03T16:17:15.402Z,3.12
2023-04-03T16:19:42.096Z,3.10
2023-04-03T16:22:09.090Z,3.04
2023-04-03T16:24:36.916Z,2.98
2023-04-03T16:27:03.817Z,2.91
2023-04-03T16:29:30.631Z,2.90
2023-04-03T16:31:57.805Z,2.81
2023-04-03T16:34:26.760Z,2.80
2023-04-03T16:36:53.631Z,2.82
2023-04-03T16:39:20.700Z,2.78
2023-04-03T16:41:47.772Z,2.73
2023-04-03T16:44:14.945Z,2.70
2023-04-03T16:46:41.832Z,2.70
2023-04-03T16:49:08.803Z,2.64
2023-04-03T16:51:35.809Z,2.64
2023-04-03T16:54:02.707Z,2.59
2023-04-03T16:56:29.604Z,2.53
2023-04-03T16:58:56.750Z,2.55
2023-04-03T17:01:23.781Z,2.54
2023-04-03T17:03:50.708Z,2.46
2023-04-03T17:06:18.679Z,2.43
2023-04-03T17:08:46.221Z,2.37
2023-04-03T17:11:26.974Z,2.32
2023-04-03T17:13:53.892Z,2.34
2023-04-03T17:16:20.812Z,2.32
2023-04-03T17:18:47.692Z,2.28
2023-04-03T17:21:15.026Z,2.28
2023-04-03T17:23:42.386Z,2.27
2023-04-03T17:26:09.430Z,2.16
2023-04-03T17:28:37.182Z,2.20
2023-04-03T17:31:04.195Z,2.19
2023-04-03T17:33:31.642Z,2.20
2023-04-03T17:35:59.129Z,2.09
2023-04-03T17:38:25.968Z,2.06
2023-04-03T17:40:52.739Z,2.03
2023-04-03T17:43:19.614Z,2.02
2023-04-03T17:45:46.702Z,1.88
2023-04-03T17:51:07.933Z,1.81
2023-04-03T17:53:34.788Z,1.80
2023-04-03T17:56:08.342Z,1.74
2023-04-03T17:58:35.758Z,1.74
2023-04-03T18:01:13.012Z,1.64
2023-04-03T18:03:40.475Z,1.62
2023-04-03T18:06:08.842Z,1.58
2023-04-03T18:08:36.752Z,1.53
2023-04-03T18:11:03.941Z,1.54
2023-04-03T18:13:30.763Z,1.50
2023-04-03T18:15:57.637Z,1.45
2023-04-03T18:18:24.471Z,1.56
2023-04-03T18:20:52.400Z,1.60
2023-04-03T18:23:19.427Z,1.52
2023-04-03T18:25:46.254Z,1.53
2023-04-03T18:28:13.082Z,1.56
2023-04-03T18:30:40.097Z,1.59
2023-04-03T18:33:07.111Z,1.53
2023-04-03T18:35:33.924Z,1.62
2023-04-03T18:38:00.739Z,1.64
2023-04-03T18:40:27.872Z,1.71
2023-04-03T18:42:54.731Z,1.60
2023-04-03T18:45:22.790Z,1.59
2023-04-03T18:47:49.721Z,1.61
2023-04-03T18:50:17.203Z,1.58
2023-04-03T18:52:44.054Z,1.53
2023-04-03T18:55:15.929Z,1.56
2023-04-03T18:57:42.777Z,1.48
2023-04-03T19:00:10.495Z,1.44
2023-04-03T19:02:37.593Z,1.52
2023-04-03T19:05:05.272Z,1.60
2023-04-03T19:07:32.013Z,1.61
2023-04-03T19:09:58.836Z,1.70
2023-04-03T19:12:26.277Z,1.60
2023-04-03T19:14:53.141Z,1.51
2023-04-03T19:17:19.960Z,1.63
2023-04-03T19:19:46.704Z,1.59
2023-04-03T19:22:13.389Z,1.56
2023-04-03T19:24:40.114Z,1.52
2023-04-03T19:27:06.929Z,1.45
2023-04-03T19:29:33.690Z,1.40
2023-04-03T19:32:00.591Z,1.39
2023-04-03T19:34:27.384Z,1.31
2023-04-03T19:36:55.604Z,1.27
2023-04-03T19:39:22.418Z,1.24
2023-04-03T19:41:49.748Z,1.21
2023-04-03T19:44:16.774Z,1.27
2023-04-03T19:46:50.741Z,1.30
2023-04-03T19:49:18.301Z,1.31
2023-04-03T19:51:45.122Z,1.27
2023-04-03T19:54:12.342Z,1.32
2023-04-03T19:56:39.094Z,1.14
2023-04-03T19:59:06.010Z,1.17
2023-04-03T20:01:34.962Z,1.08
2023-04-03T20:04:02.278Z,1.21
2023-04-03T20:06:29.253Z,1.20
2023-04-03T20:08:56.190Z,1.24
2023-04-03T20:11:23.343Z,1.24
2023-04-03T20:16:42.833Z,1.12
2023-04-03T20:19:09.784Z,1.07
2023-04-03T20:21:36.631Z,1.09
2023-04-03T20:24:04.006Z,1.03
2023-04-03T20:26:31.878Z,0.97
2023-04-03T20:28:59.751Z,0.79
2023-04-03T20:31:27.234Z,0.79
2023-04-03T20:33:54.175Z,0.82
2023-04-03T20:36:22.103Z,0.85
2023-04-03T20:38:49.252Z,0.75
2023-04-03T20:41:16.442Z,0.72
2023-04-03T20:43:44.097Z,0.64
2023-04-03T20:46:20.490Z,0.75
2023-04-03T20:48:48.281Z,0.60
2023-04-03T20:51:16.231Z,0.57
2023-04-03T20:53:43.329Z,0.47
2023-04-03T20:56:10.181Z,0.47
2023-04-03T20:58:39.075Z,0.55
2023-04-03T21:01:22.947Z,0.54
2023-04-03T21:03:50.877Z,0.44
2023-04-03T21:06:36.762Z,0.32
2023-04-03T21:09:22.502Z,0.23
2023-04-03T21:12:08.243Z,0.20
2023-04-03T21:14:53.887Z,0.23
2023-04-03T21:17:20.694Z,0.21
2023-04-03T21:19:48.945Z,0.24
2023-04-03T21:22:16.371Z,0.05
2023-04-03T21:24:43.493Z,-0.06
2023-04-03T21:27:10.379Z,-0.16
2023-04-03T21:29:37.619Z,-0.24
2023-04-03T21:32:04.525Z,-0.26
2023-04-03T21:34:31.383Z,-0.25
2023-04-03T21:37:02.312Z,-0.36
2023-04-03T21:39:29.232Z,-0.35
2023-04-03T21:45:20.804Z,-0.39
2023-04-03T21:47:47.944Z,-0.49
2023-04-03T21:50:14.770Z,-0.55
2023-04-03T21:52:41.577Z,-0.54
2023-04-03T21:55:09.087Z,-0.57
2023-04-03T21:57:36.410Z,-0.69
2023-04-03T22:00:05.092Z,-0.76
2023-04-03T22:02:34.093Z,-0.66
2023-04-03T22:05:00.939Z,-0.69
2023-04-03T22:07:27.667Z,-0.71
2023-04-03T22:09:54.525Z,-0.73
2023-04-03T22:12:21.275Z,-0.80
2023-04-03T22:14:48.247Z,-0.87
2023-04-03T22:17:15.075Z,-0.86
2023-04-03T22:19:41.957Z,-0.89
2023-04-03T22:22:09.220Z,-0.88
2023-04-03T22:24:36.019Z,-0.95
2023-04-03T22:27:03.077Z,-0.94
2023-04-03T22:29:29.891Z,-0.97
2023-04-03T22:31:56.727Z,-0.88
2023-04-03T22:34:23.902Z,-0.95
2023-04-03T22:36:51.056Z,-0.95
2023-04-03T22:39:19.659Z,-1.02
2023-04-03T22:41:46.493Z,-0.96
2023-04-03T22:44:13.379Z,-0.96
2023-04-03T22:46:40.210Z,-0.97
2023-04-03T22:49:07.781Z,-1.01
2023-04-03T22:51:34.609Z,-0.97
2023-04-03T22:54:01.685Z,-1.03
2023-04-03T22:56:28.494Z,-0.93
2023-04-03T22:58:56.147Z,-1.03
2023-04-03T23:01:25.388Z,-1.08
2023-04-03T23:03:52.313Z,-1.04
2023-04-03T23:06:19.106Z,-1.10
2023-04-03T23:08:45.877Z,-1.09
2023-04-03T23:11:12.847Z,-1.11
2023-04-03T23:13:39.781Z,-1.12
2023-04-03T23:16:06.936Z,-1.22
2023-04-03T23:18:34.064Z,-1.21
2023-04-03T23:21:01.807Z,-1.15
2023-04-03T23:23:28.792Z,-1.18
2023-04-03T23:25:59.468Z,-1.20
2023-04-03T23:28:26.743Z,-1.23
2023-04-03T23:30:57.278Z,-1.21
2023-04-03T23:33:24.015Z,-1.27
2023-04-03T23:35:52.341Z,-1.27
2023-04-03T23:38:19.194Z,-1.23
2023-04-03T23:40:46.351Z,-1.12
2023-04-03T23:43:13.100Z,-1.32
2023-04-03T23:45:40.032Z,-1.31
2023-04-03T23:48:06.882Z,-1.36
2023-04-03T23:50:33.890Z,-1.31
2023-04-03T23:53:01.157Z,-1.39
2023-04-03T23:55:28.175Z,-1.45
2023-04-03T23:57:54.984Z,-1.46
